createdAt,value
2023-05-21T00:00:46.398Z,65.38
2023-05-21T00:01:51.458Z,65.73
2023-05-21T00:02:59.633Z,65.42
2023-05-21T00:04:05.347Z,64.94
2023-05-21T00:05:15.899Z,64.70
2023-05-21T00:06:22.601Z,65.05
2023-05-21T00:07:28.963Z,65.37
2023-05-21T00:08:35.430Z,65.10
2023-05-21T00:09:41.812Z,65.68
2023-05-21T00:10:46.900Z,65.11
2023-05-21T00:11:53.220Z,64.50
2023-05-21T00:12:58.219Z,65.14
2023-05-21T00:14:04.591Z,64.36
2023-05-21T00:15:10.555Z,64.41
2023-05-21T00:16:17.005Z,64.97
2023-05-21T00:17:22.118Z,64.31
2023-05-21T00:18:28.366Z,64.39
2023-05-21T00:19:34.145Z,64.92
2023-05-21T00:20:42.990Z,64.83
2023-05-21T00:21:49.725Z,64.34
2023-05-21T00:22:56.157Z,64.20
2023-05-21T00:24:01.243Z,63.81
2023-05-21T00:25:08.185Z,64.70
2023-05-21T00:26:13.335Z,64.50
2023-05-21T00:27:19.820Z,64.36
2023-05-21T00:28:26.171Z,64.17
2023-05-21T00:29:31.453Z,64.88
2023-05-21T00:30:37.763Z,64.13
2023-05-21T00:31:42.939Z,63.69
2023-05-21T00:32:49.428Z,63.60
2023-05-21T00:33:54.528Z,64.06
2023-05-21T00:35:01.162Z,63.54
2023-05-21T00:36:07.444Z,64.03
2023-05-21T00:37:16.902Z,64.33
2023-05-21T00:38:21.947Z,63.92
2023-05-21T00:39:28.525Z,64.02
2023-05-21T00:40:34.022Z,63.54
2023-05-21T00:41:41.427Z,63.71
2023-05-21T00:42:51.992Z,64.27
2023-05-21T00:43:58.544Z,64.07
2023-05-21T00:45:06.826Z,63.85
2023-05-21T00:46:15.049Z,65.09
2023-05-21T00:47:20.184Z,63.80
2023-05-21T00:48:27.413Z,64.44
2023-05-21T00:49:34.607Z,64.30
2023-05-21T00:50:42.376Z,63.54
2023-05-21T00:51:47.446Z,63.71
2023-05-21T00:52:55.705Z,64.06
2023-05-21T00:54:00.904Z,63.25
2023-05-21T00:55:07.859Z,62.92
2023-05-21T00:56:13.026Z,63.76
2023-05-21T00:57:21.939Z,63.69
2023-05-21T00:58:27.746Z,62.79
2023-05-21T00:59:35.392Z,62.91
2023-05-21T01:00:41.954Z,63.28
2023-05-21T01:01:56.876Z,63.37
2023-05-21T01:03:02.096Z,63.42
2023-05-21T01:04:08.988Z,63.23
2023-05-21T01:05:14.430Z,62.69
2023-05-21T01:06:23.560Z,63.25
2023-05-21T01:07:28.625Z,63.54
2023-05-21T01:08:37.617Z,63.58
2023-05-21T01:09:42.803Z,63.20
2023-05-21T01:10:49.176Z,62.68
2023-05-21T01:11:54.668Z,63.27
2023-05-21T01:13:02.155Z,63.44
2023-05-21T01:14:09.289Z,62.15
2023-05-21T01:15:16.138Z,62.88
2023-05-21T01:16:21.255Z,62.81
2023-05-21T01:17:27.765Z,62.71
2023-05-21T01:18:36.419Z,62.63
2023-05-21T01:20:49.503Z,62.33
2023-05-21T01:22:00.007Z,62.62
2023-05-21T01:23:06.715Z,62.43
2023-05-21T01:24:13.107Z,62.76
2023-05-21T01:25:19.678Z,62.33
2023-05-21T01:26:28.896Z,62.21
2023-05-21T01:27:34.960Z,61.97
2023-05-21T01:28:39.940Z,62.41
2023-05-21T01:29:46.298Z,61.92
2023-05-21T01:30:51.532Z,61.65
2023-05-21T01:32:06.996Z,62.50
2023-05-21T01:33:17.747Z,61.36
2023-05-21T01:34:27.515Z,61.80
2023-05-21T01:35:35.987Z,61.35
2023-05-21T01:36:44.788Z,61.60
2023-05-21T01:37:56.587Z,61.23
2023-05-21T01:39:08.356Z,61.49
2023-05-21T01:40:16.126Z,62.04
2023-05-21T01:41:22.880Z,61.95
2023-05-21T01:42:28.440Z,61.33
2023-05-21T01:43:37.660Z,61.72
2023-05-21T01:44:43.025Z,61.33
2023-05-21T01:45:49.937Z,61.63
2023-05-21T01:46:55.741Z,61.98
2023-05-21T01:48:02.322Z,61.71
2023-05-21T01:49:08.439Z,61.30
2023-05-21T01:50:15.474Z,61.70
2023-05-21T01:51:20.636Z,61.46
2023-05-21T01:52:27.056Z,61.36
2023-05-21T01:53:32.089Z,61.38
2023-05-21T01:54:40.126Z,62.01
2023-05-21T01:55:45.168Z,61.73
2023-05-21T01:56:51.908Z,60.99
2023-05-21T01:57:57.878Z,61.02
2023-05-21T01:59:05.538Z,61.14
2023-05-21T02:00:12.281Z,60.67
2023-05-21T02:01:18.828Z,61.14
2023-05-21T02:02:23.956Z,60.54
2023-05-21T02:03:32.306Z,61.25
2023-05-21T02:04:37.611Z,60.97
2023-05-21T02:05:44.019Z,61.12
2023-05-21T02:06:49.146Z,60.95
2023-05-21T02:07:57.417Z,60.26
2023-05-21T02:09:02.559Z,61.07
2023-05-21T02:10:11.922Z,61.52
2023-05-21T02:11:16.963Z,61.05
2023-05-21T02:12:23.480Z,60.43
2023-05-21T02:13:30.671Z,60.43
2023-05-21T02:14:37.114Z,60.52
2023-05-21T02:15:42.118Z,61.01
2023-05-21T02:16:48.509Z,60.25
2023-05-21T02:17:54.410Z,60.27
2023-05-21T02:19:02.044Z,60.40
2023-05-21T02:20:12.839Z,60.02
2023-05-21T02:21:19.308Z,60.44
2023-05-21T02:22:24.470Z,60.75
2023-05-21T02:23:30.778Z,60.52
2023-05-21T02:24:35.954Z,60.25
2023-05-21T02:25:44.061Z,60.19
2023-05-21T02:26:51.139Z,60.31
2023-05-21T02:27:58.075Z,60.22
2023-05-21T02:29:03.359Z,60.16
2023-05-21T02:30:11.311Z,59.84
2023-05-21T02:31:16.349Z,60.55
2023-05-21T02:32:22.732Z,59.56
2023-05-21T02:33:27.957Z,59.99
2023-05-21T02:34:34.364Z,59.54
2023-05-21T02:35:39.500Z,59.79
2023-05-21T02:36:45.919Z,59.57
2023-05-21T02:37:50.962Z,59.53
2023-05-21T02:38:59.069Z,59.61
2023-05-21T02:40:05.492Z,59.75
2023-05-21T02:41:16.825Z,60.24
2023-05-21T02:42:21.869Z,59.77
2023-05-21T02:43:28.232Z,59.81
2023-05-21T02:44:33.250Z,59.61
2023-05-21T02:45:39.884Z,59.79
2023-05-21T02:46:45.071Z,59.60
2023-05-21T02:47:51.621Z,59.53
2023-05-21T02:48:56.691Z,59.72
2023-05-21T02:50:04.166Z,59.66
2023-05-21T02:51:09.258Z,59.54
2023-05-21T02:52:15.760Z,59.35
2023-05-21T02:53:20.880Z,59.50
2023-05-21T02:54:27.276Z,59.16
2023-05-21T02:55:32.433Z,58.73
2023-05-21T02:56:40.471Z,58.72
2023-05-21T02:57:45.467Z,58.84
2023-05-21T02:58:53.276Z,58.60
2023-05-21T03:00:00.171Z,57.95
2023-05-21T03:01:06.578Z,58.55
2023-05-21T03:02:11.737Z,58.50
2023-05-21T03:03:18.275Z,58.32
2023-05-21T03:04:23.665Z,58.37
2023-05-21T03:05:30.161Z,58.57
2023-05-21T03:06:36.140Z,57.99
2023-05-21T03:07:43.328Z,57.58
2023-05-21T03:08:48.413Z,57.36
2023-05-21T03:09:54.920Z,58.13
2023-05-21T03:10:59.946Z,58.05
2023-05-21T03:12:08.442Z,58.46
2023-05-21T03:13:14.885Z,58.20
2023-05-21T03:14:20.037Z,57.85
2023-05-21T03:15:26.479Z,58.11
2023-05-21T03:16:35.741Z,58.47
2023-05-21T03:17:43.665Z,58.00
2023-05-21T03:18:55.939Z,57.99
2023-05-21T03:20:07.212Z,57.70
2023-05-21T03:21:14.524Z,57.62
2023-05-21T03:22:21.401Z,58.04
2023-05-21T03:23:28.322Z,57.68
2023-05-21T03:24:34.393Z,58.03
2023-05-21T03:25:40.682Z,58.49
2023-05-21T03:26:45.734Z,57.85
2023-05-21T03:27:53.795Z,58.82
2023-05-21T03:28:59.245Z,58.61
2023-05-21T03:30:06.727Z,57.77
2023-05-21T03:31:13.421Z,57.92
2023-05-21T03:32:18.428Z,57.77
2023-05-21T03:33:25.411Z,58.11
2023-05-21T03:34:30.643Z,57.80
2023-05-21T03:35:37.241Z,57.72
2023-05-21T03:36:43.891Z,58.02
2023-05-21T03:37:48.944Z,57.75
2023-05-21T03:38:55.412Z,58.03
2023-05-21T03:40:00.466Z,57.83
2023-05-21T03:41:06.991Z,57.81
2023-05-21T03:42:12.134Z,57.98
2023-05-21T03:43:20.265Z,58.40
2023-05-21T03:44:25.337Z,58.11
2023-05-21T03:45:31.751Z,57.94
2023-05-21T03:46:36.973Z,58.28
2023-05-21T03:47:44.339Z,58.92
2023-05-21T03:48:49.492Z,57.89
2023-05-21T03:49:56.022Z,57.71
2023-05-21T03:51:01.255Z,57.73
2023-05-21T03:52:08.095Z,57.68
2023-05-21T03:53:13.818Z,57.28
2023-05-21T03:54:20.152Z,57.79
2023-05-21T03:55:25.377Z,57.72
2023-05-21T03:56:31.687Z,58.32
2023-05-21T03:57:36.794Z,58.19
2023-05-21T03:58:45.564Z,58.05
2023-05-21T03:59:50.712Z,57.75
2023-05-21T04:00:57.146Z,57.69
2023-05-21T04:02:02.220Z,57.53
2023-05-21T04:03:08.720Z,57.62
2023-05-21T04:04:14.049Z,57.47
2023-05-21T04:05:20.578Z,57.43
2023-05-21T04:06:25.723Z,57.55
2023-05-21T04:07:32.583Z,56.93
2023-05-21T04:08:38.076Z,57.58
2023-05-21T04:09:44.877Z,57.29
2023-05-21T04:10:50.001Z,57.11
2023-05-21T04:12:00.352Z,57.00
2023-05-21T04:13:05.568Z,56.77
2023-05-21T04:14:14.102Z,57.53
2023-05-21T04:15:19.957Z,57.30
2023-05-21T04:16:26.470Z,57.88
2023-05-21T04:17:31.682Z,57.20
2023-05-21T04:18:38.024Z,56.66
2023-05-21T04:19:43.356Z,57.36
2023-05-21T04:20:51.286Z,57.33
2023-05-21T04:21:56.358Z,57.01
2023-05-21T04:23:02.891Z,56.81
2023-05-21T04:24:08.092Z,57.09
2023-05-21T04:25:14.576Z,56.61
2023-05-21T04:26:19.641Z,56.68
2023-05-21T04:27:26.704Z,56.78
2023-05-21T04:28:31.813Z,56.58
2023-05-21T04:29:44.030Z,56.61
2023-05-21T04:30:49.582Z,56.81
2023-05-21T04:31:56.006Z,56.39
2023-05-21T04:33:01.520Z,56.77
2023-05-21T04:34:08.076Z,56.60
2023-05-21T04:35:13.497Z,57.01
2023-05-21T04:36:20.299Z,56.79
2023-05-21T04:37:26.106Z,56.99
2023-05-21T04:38:32.646Z,56.63
2023-05-21T04:39:37.748Z,56.71
2023-05-21T04:40:44.937Z,56.55
2023-05-21T04:41:52.140Z,56.38
2023-05-21T04:42:58.497Z,56.17
2023-05-21T04:44:03.575Z,56.01
2023-05-21T04:45:12.924Z,55.31
2023-05-21T04:46:17.966Z,55.96
2023-05-21T04:47:24.425Z,55.70
2023-05-21T04:48:30.119Z,54.51
2023-05-21T04:49:37.138Z,55.85
2023-05-21T04:50:42.856Z,55.72
2023-05-21T04:51:50.638Z,55.22
2023-05-21T04:52:56.112Z,55.43
2023-05-21T04:54:02.427Z,53.18
2023-05-21T04:55:08.287Z,54.92
2023-05-21T04:56:14.883Z,55.47
2023-05-21T04:57:20.105Z,54.94
2023-05-21T04:58:27.682Z,54.99
2023-05-21T04:59:34.236Z,55.23
2023-05-21T05:00:41.642Z,55.40
2023-05-21T05:01:48.081Z,55.40
2023-05-21T05:02:53.107Z,55.08
2023-05-21T05:03:59.662Z,55.44
2023-05-21T05:05:04.860Z,55.36
2023-05-21T05:06:11.509Z,54.82
2023-05-21T05:07:16.950Z,55.51
2023-05-21T05:08:23.411Z,55.63
2023-05-21T05:09:28.527Z,55.17
2023-05-21T05:10:34.888Z,54.97
2023-05-21T05:11:39.896Z,54.45
2023-05-21T05:12:46.389Z,54.89
2023-05-21T05:13:51.472Z,54.85
2023-05-21T05:14:57.845Z,54.44
2023-05-21T05:16:04.761Z,55.00
2023-05-21T05:17:12.012Z,54.36
2023-05-21T05:18:17.934Z,54.48
2023-05-21T05:19:24.365Z,54.26
2023-05-21T05:20:29.519Z,54.25
2023-05-21T05:21:35.971Z,54.46
2023-05-21T05:22:42.319Z,54.68
2023-05-21T05:23:47.404Z,54.20
2023-05-21T05:24:53.845Z,53.99
2023-05-21T05:25:58.994Z,53.91
2023-05-21T05:27:05.398Z,54.53
2023-05-21T05:28:10.373Z,54.36
2023-05-21T05:29:16.792Z,53.71
2023-05-21T05:30:22.152Z,53.80
2023-05-21T05:31:30.305Z,53.53
2023-05-21T05:32:35.580Z,53.41
2023-05-21T05:33:42.458Z,53.45
2023-05-21T05:34:48.616Z,53.55
2023-05-21T05:35:54.892Z,53.82
2023-05-21T05:37:01.372Z,53.78
2023-05-21T05:38:06.522Z,53.65
2023-05-21T05:39:13.154Z,53.76
2023-05-21T05:40:18.400Z,52.75
2023-05-21T05:41:24.840Z,52.92
2023-05-21T05:42:30.086Z,53.52
2023-05-21T05:43:36.416Z,53.00
2023-05-21T05:44:41.439Z,52.67
2023-05-21T05:45:47.852Z,52.96
2023-05-21T05:46:54.599Z,52.78
2023-05-21T05:48:01.049Z,52.41
2023-05-21T05:49:06.173Z,52.48
2023-05-21T05:50:13.083Z,52.79
2023-05-21T05:51:19.661Z,52.58
2023-05-21T05:52:24.774Z,52.36
2023-05-21T05:53:31.215Z,53.03
2023-05-21T05:54:36.417Z,52.40
2023-05-21T05:55:42.897Z,52.01
2023-05-21T05:56:47.993Z,51.90
2023-05-21T05:57:54.378Z,51.38
2023-05-21T05:59:01.319Z,50.27
2023-05-21T06:00:08.425Z,50.01
2023-05-21T06:01:14.819Z,49.32
2023-05-21T06:02:21.507Z,49.75
2023-05-21T06:03:28.004Z,50.08
2023-05-21T06:04:33.184Z,50.11
2023-05-21T06:05:39.932Z,49.56
2023-05-21T06:06:45.216Z,49.14
2023-05-21T06:07:51.554Z,49.47
2023-05-21T06:08:57.804Z,49.33
2023-05-21T06:10:02.830Z,48.52
2023-05-21T06:11:09.234Z,49.05
2023-05-21T06:12:17.314Z,48.87
2023-05-21T06:13:23.726Z,48.76
2023-05-21T06:14:28.793Z,48.73
2023-05-21T06:15:35.380Z,48.25
2023-05-21T06:16:40.842Z,48.37
2023-05-21T06:17:48.885Z,47.93
2023-05-21T06:18:53.994Z,47.74
2023-05-21T06:20:00.839Z,47.32
2023-05-21T06:21:05.974Z,47.93
2023-05-21T06:22:12.381Z,47.90
2023-05-21T06:23:17.533Z,47.58
2023-05-21T06:24:24.245Z,47.20
2023-05-21T06:25:29.340Z,47.06
2023-05-21T06:26:35.703Z,47.73
2023-05-21T06:27:40.798Z,46.95
2023-05-21T06:28:47.200Z,46.72
2023-05-21T06:29:52.651Z,45.60
2023-05-21T06:30:59.065Z,46.95
2023-05-21T06:32:04.189Z,46.13
2023-05-21T06:33:12.782Z,44.22
2023-05-21T06:34:19.450Z,45.61
2023-05-21T06:35:25.774Z,45.87
2023-05-21T06:36:33.648Z,46.08
2023-05-21T06:37:40.061Z,45.98
2023-05-21T06:38:45.243Z,46.36
2023-05-21T06:39:51.811Z,46.08
2023-05-21T06:40:59.722Z,45.78
2023-05-21T06:42:06.100Z,46.72
2023-05-21T06:43:11.177Z,42.08
2023-05-21T06:44:17.762Z,45.82
2023-05-21T06:45:23.101Z,45.68
2023-05-21T06:46:29.713Z,43.81
2023-05-21T06:47:34.837Z,45.70
2023-05-21T06:48:42.851Z,44.27
2023-05-21T06:49:49.179Z,44.95
2023-05-21T06:50:54.276Z,45.26
2023-05-21T06:52:00.629Z,45.33
2023-05-21T06:53:05.724Z,45.29
2023-05-21T06:54:14.231Z,45.10
2023-05-21T06:55:19.324Z,45.46
2023-05-21T06:56:25.780Z,45.38
2023-05-21T06:57:30.729Z,45.68
2023-05-21T06:58:37.511Z,45.71
2023-05-21T06:59:43.811Z,45.54
2023-05-21T07:00:48.944Z,45.49
2023-05-21T07:01:55.463Z,45.53
2023-05-21T07:03:00.630Z,45.68
2023-05-21T07:04:08.893Z,45.37
2023-05-21T07:05:13.977Z,45.65
2023-05-21T07:06:20.376Z,45.77
2023-05-21T07:07:26.842Z,45.13
2023-05-21T07:08:31.889Z,45.65
2023-05-21T07:09:38.206Z,44.96
2023-05-21T07:10:43.664Z,45.40
2023-05-21T07:11:50.112Z,45.11
2023-05-21T07:12:55.275Z,45.14
2023-05-21T07:14:03.319Z,44.79
2023-05-21T07:15:09.341Z,45.29
2023-05-21T07:16:15.833Z,44.72
2023-05-21T07:17:22.200Z,45.36
2023-05-21T07:18:27.414Z,45.44
2023-05-21T07:19:35.558Z,45.00
2023-05-21T07:20:40.730Z,44.71
2023-05-21T07:21:47.162Z,45.12
2023-05-21T07:22:52.154Z,44.64
2023-05-21T07:23:58.722Z,44.27
2023-05-21T07:25:03.889Z,44.22
2023-05-21T07:26:10.308Z,44.41
2023-05-21T07:27:25.477Z,44.05
2023-05-21T07:28:41.861Z,44.09
2023-05-21T07:29:46.911Z,44.58
2023-05-21T07:30:53.326Z,44.36
2023-05-21T07:31:59.863Z,44.07
2023-05-21T07:33:04.972Z,44.18
2023-05-21T07:34:11.487Z,44.10
2023-05-21T07:35:18.310Z,42.83
2023-05-21T07:36:24.767Z,43.74
2023-05-21T07:37:30.037Z,44.14
2023-05-21T07:38:36.806Z,43.37
2023-05-21T07:39:41.826Z,43.76
2023-05-21T07:40:48.312Z,43.59
2023-05-21T07:41:53.458Z,44.21
2023-05-21T07:42:59.887Z,43.91
2023-05-21T07:44:05.040Z,43.75
2023-05-21T07:45:12.308Z,43.39
2023-05-21T07:46:18.785Z,43.67
2023-05-21T07:47:24.906Z,43.70
2023-05-21T07:48:32.128Z,42.63
2023-05-21T07:49:38.664Z,43.94
2023-05-21T07:50:46.666Z,43.63
2023-05-21T07:51:52.091Z,43.84
2023-05-21T07:52:58.507Z,43.49
2023-05-21T07:54:03.528Z,43.81
2023-05-21T07:55:11.320Z,43.96
2023-05-21T07:56:17.644Z,43.98
2023-05-21T07:57:25.035Z,43.53
2023-05-21T07:58:32.440Z,43.62
2023-05-21T07:59:38.909Z,43.48
2023-05-21T08:00:46.279Z,44.10
2023-05-21T08:01:52.723Z,44.11
2023-05-21T08:02:58.618Z,44.24
2023-05-21T08:04:07.108Z,43.91
2023-05-21T08:05:12.645Z,43.79
2023-05-21T08:06:20.714Z,43.75
2023-05-21T08:07:25.867Z,43.42
2023-05-21T08:08:32.294Z,42.92
2023-05-21T08:09:38.682Z,43.24
2023-05-21T08:10:43.841Z,43.15
2023-05-21T08:11:50.247Z,43.42
2023-05-21T08:12:55.374Z,43.49
2023-05-21T08:14:01.828Z,43.59
2023-05-21T08:15:07.687Z,43.33
2023-05-21T08:16:14.292Z,43.38
2023-05-21T08:17:19.368Z,43.57
2023-05-21T08:18:26.760Z,43.64
2023-05-21T08:19:31.828Z,43.56
2023-05-21T08:20:38.345Z,43.53
2023-05-21T08:21:45.080Z,43.83
2023-05-21T08:22:51.457Z,43.79
2023-05-21T08:23:58.475Z,43.52
2023-05-21T08:25:05.164Z,43.34
2023-05-21T08:26:10.295Z,43.68
2023-05-21T08:27:17.443Z,43.27
2023-05-21T08:28:23.844Z,43.33
2023-05-21T08:29:30.169Z,42.79
2023-05-21T08:30:35.457Z,42.68
2023-05-21T08:31:42.908Z,42.72
2023-05-21T08:32:48.030Z,42.73
2023-05-21T08:33:57.838Z,41.81
2023-05-21T08:35:02.905Z,42.30
2023-05-21T08:36:10.060Z,42.25
2023-05-21T08:37:16.834Z,41.31
2023-05-21T08:38:23.291Z,41.87
2023-05-21T08:39:28.310Z,42.10
2023-05-21T08:40:34.724Z,42.06
2023-05-21T08:41:40.868Z,41.64
2023-05-21T08:42:49.460Z,41.56
2023-05-21T08:43:59.378Z,41.82
2023-05-21T08:45:10.888Z,41.62
2023-05-21T08:46:16.298Z,41.68
2023-05-21T08:47:27.136Z,41.72
2023-05-21T08:48:35.062Z,41.69
2023-05-21T08:49:41.541Z,41.68
2023-05-21T08:50:47.054Z,40.92
2023-05-21T08:51:53.665Z,41.36
2023-05-21T08:53:00.661Z,40.85
2023-05-21T08:54:11.213Z,41.11
2023-05-21T08:55:18.217Z,40.25
2023-05-21T08:56:24.228Z,41.09
2023-05-21T08:57:31.230Z,40.83
2023-05-21T08:58:37.070Z,40.69
2023-05-21T08:59:45.598Z,40.85
2023-05-21T09:00:50.807Z,40.70
2023-05-21T09:01:58.840Z,40.23
2023-05-21T09:03:08.776Z,39.97
2023-05-21T09:04:21.368Z,39.84
2023-05-21T09:05:30.259Z,39.81
2023-05-21T09:06:35.324Z,40.07
2023-05-21T09:07:46.838Z,39.17
2023-05-21T09:09:00.134Z,39.53
2023-05-21T09:10:09.640Z,39.23
2023-05-21T09:11:14.861Z,40.02
2023-05-21T09:12:21.538Z,39.67
2023-05-21T09:13:29.558Z,38.49
2023-05-21T09:14:36.051Z,39.16
2023-05-21T09:15:43.291Z,38.69
2023-05-21T09:16:50.136Z,38.59
2023-05-21T09:17:57.033Z,38.82
2023-05-21T09:19:04.359Z,38.94
2023-05-21T09:20:13.938Z,39.12
2023-05-21T09:21:29.941Z,38.64
2023-05-21T09:22:35.209Z,39.39
2023-05-21T09:23:41.583Z,38.79
2023-05-21T09:24:49.282Z,38.30
2023-05-21T09:25:55.642Z,39.56
2023-05-21T09:27:01.190Z,39.59
2023-05-21T09:28:07.831Z,39.29
2023-05-21T09:29:13.149Z,40.32
2023-05-21T09:30:25.244Z,40.03
2023-05-21T09:31:34.211Z,39.28
2023-05-21T09:32:39.446Z,40.24
2023-05-21T09:33:50.793Z,39.67
2023-05-21T09:34:55.876Z,40.27
2023-05-21T09:36:02.230Z,39.34
2023-05-21T09:37:19.940Z,38.43
2023-05-21T09:38:33.471Z,39.46
2023-05-21T09:39:38.571Z,39.59
2023-05-21T09:40:50.005Z,38.79
2023-05-21T09:41:55.190Z,39.20
2023-05-21T09:43:01.543Z,39.78
2023-05-21T09:44:07.105Z,39.66
2023-05-21T09:45:13.814Z,39.50
2023-05-21T09:46:28.239Z,39.67
2023-05-21T09:47:34.482Z,39.74
2023-05-21T09:48:41.734Z,39.94
2023-05-21T09:49:47.962Z,40.74
2023-05-21T09:50:52.474Z,41.24
2023-05-21T09:52:01.563Z,41.28
2023-05-21T09:53:14.548Z,41.52
2023-05-21T09:54:20.415Z,42.28
2023-05-21T09:55:27.431Z,42.59
2023-05-21T09:56:33.575Z,42.87
2023-05-21T09:57:45.140Z,42.79
2023-05-21T09:58:49.797Z,42.41
2023-05-21T09:59:55.603Z,43.26
2023-05-21T10:01:01.338Z,42.58
2023-05-21T10:02:07.952Z,43.05
2023-05-21T10:03:16.357Z,42.51
2023-05-21T10:04:21.293Z,43.60
2023-05-21T10:05:30.822Z,43.15
2023-05-21T10:06:38.261Z,41.93
2023-05-21T10:07:45.629Z,42.90
2023-05-21T10:09:09.882Z,43.07
2023-05-21T10:10:17.796Z,42.96
2023-05-21T10:11:25.389Z,42.67
2023-05-21T10:12:34.299Z,42.35
2023-05-21T10:13:39.339Z,43.34
2023-05-21T10:14:46.325Z,43.74
2023-05-21T10:15:55.157Z,42.70
2023-05-21T10:17:01.159Z,43.89
2023-05-21T10:18:06.198Z,44.46
2023-05-21T10:19:13.199Z,45.17
2023-05-21T10:20:20.165Z,45.06
2023-05-21T10:21:26.931Z,45.25
2023-05-21T10:22:31.777Z,45.70
2023-05-21T10:23:38.811Z,45.79
2023-05-21T10:24:44.118Z,45.58
2023-05-21T10:25:50.056Z,46.42
2023-05-21T10:26:55.182Z,47.02
2023-05-21T10:28:02.667Z,46.45
2023-05-21T10:29:07.290Z,46.43
2023-05-21T10:30:13.857Z,46.81
2023-05-21T10:31:18.493Z,47.40
2023-05-21T10:32:25.323Z,47.24
2023-05-21T10:33:30.290Z,47.93
2023-05-21T10:34:36.258Z,47.82
2023-05-21T10:35:40.969Z,47.08
2023-05-21T10:36:47.506Z,48.44
2023-05-21T10:37:55.968Z,48.17
2023-05-21T10:39:02.315Z,48.18
2023-05-21T10:40:07.749Z,48.17
2023-05-21T10:41:14.692Z,47.73
2023-05-21T10:42:41.604Z,48.44
2023-05-21T10:43:59.020Z,48.23
2023-05-21T10:45:15.154Z,48.51
2023-05-21T10:46:31.061Z,48.25
2023-05-21T10:48:07.787Z,47.92
2023-05-21T10:49:36.738Z,48.21
2023-05-21T10:50:56.915Z,48.24
2023-05-21T10:52:09.592Z,49.04
2023-05-21T10:53:23.152Z,48.77
2023-05-21T10:54:57.360Z,48.33
2023-05-21T10:56:11.832Z,48.83
2023-05-21T10:57:52.925Z,49.44
2023-05-21T10:59:19.367Z,49.36
2023-05-21T11:00:24.047Z,48.95
2023-05-21T11:01:36.340Z,48.91
2023-05-21T11:02:41.032Z,48.94
2023-05-21T11:03:46.975Z,49.82
2023-05-21T11:05:01.643Z,50.32
2023-05-21T11:06:07.366Z,49.83
2023-05-21T11:07:13.504Z,49.89
2023-05-21T11:08:27.887Z,49.74
2023-05-21T11:09:33.752Z,50.29
2023-05-21T11:10:41.826Z,50.36
2023-05-21T11:11:49.379Z,49.82
2023-05-21T11:13:14.781Z,50.53
2023-05-21T11:14:38.327Z,49.79
2023-05-21T11:16:08.821Z,50.19
2023-05-21T11:17:16.172Z,49.42
2023-05-21T11:18:20.817Z,50.03
2023-05-21T11:19:37.555Z,50.26
2023-05-21T11:20:43.701Z,49.94
2023-05-21T11:21:53.331Z,50.30
2023-05-21T11:23:01.840Z,49.48
2023-05-21T11:24:09.681Z,50.25
2023-05-21T11:25:16.461Z,50.07
2023-05-21T11:26:21.807Z,50.25
2023-05-21T11:27:37.781Z,49.84
2023-05-21T11:28:42.937Z,50.58
2023-05-21T11:29:50.454Z,50.53
2023-05-21T11:31:25.442Z,50.55
2023-05-21T11:32:32.475Z,50.00
2023-05-21T11:33:37.050Z,49.91
2023-05-21T11:34:44.564Z,49.97
2023-05-21T11:36:04.815Z,50.01
2023-05-21T11:37:31.254Z,50.06
2023-05-21T11:38:37.238Z,49.58
2023-05-21T11:39:41.903Z,49.10
2023-05-21T11:40:55.817Z,49.44
2023-05-21T11:42:03.817Z,50.11
2023-05-21T11:43:10.427Z,49.53
2023-05-21T11:44:15.088Z,49.71
2023-05-21T11:45:23.877Z,49.84
2023-05-21T11:46:28.863Z,50.25
2023-05-21T11:47:35.539Z,50.36
2023-05-21T11:48:41.660Z,50.86
2023-05-21T11:49:46.934Z,50.84
2023-05-21T11:50:52.818Z,51.27
2023-05-21T11:51:57.662Z,51.69
2023-05-21T11:53:03.622Z,51.88
2023-05-21T11:54:09.827Z,51.94
2023-05-21T11:55:16.687Z,51.86
2023-05-21T11:56:21.400Z,51.48
2023-05-21T11:57:33.131Z,51.67
2023-05-21T11:58:38.954Z,52.11
2023-05-21T11:59:45.074Z,51.63
2023-05-21T12:00:55.860Z,52.07
2023-05-21T12:02:00.630Z,52.64
2023-05-21T12:03:08.200Z,52.99
2023-05-21T12:04:13.354Z,52.59
2023-05-21T12:05:20.026Z,53.00
2023-05-21T12:06:29.253Z,52.92
2023-05-21T12:07:35.214Z,53.36
2023-05-21T12:08:40.033Z,53.81
2023-05-21T12:09:46.796Z,53.91
2023-05-21T12:10:51.451Z,54.08
2023-05-21T12:11:57.341Z,54.31
2023-05-21T12:13:02.953Z,54.73
2023-05-21T12:14:11.991Z,55.25
2023-05-21T12:15:19.988Z,54.89
2023-05-21T12:16:26.186Z,56.17
2023-05-21T12:17:32.636Z,55.85
2023-05-21T12:18:38.713Z,56.29
2023-05-21T12:19:44.720Z,57.17
2023-05-21T12:20:49.420Z,55.99
2023-05-21T12:21:55.220Z,57.84
2023-05-21T12:23:01.929Z,58.77
2023-05-21T12:24:06.728Z,57.23
2023-05-21T12:25:13.503Z,56.92
2023-05-21T12:26:18.544Z,58.45
2023-05-21T12:27:25.399Z,56.91
2023-05-21T12:28:30.444Z,58.01
2023-05-21T12:29:36.914Z,57.28
2023-05-21T12:30:42.818Z,59.21
2023-05-21T12:31:52.477Z,57.99
2023-05-21T12:33:05.478Z,59.35
2023-05-21T12:34:10.281Z,58.45
2023-05-21T12:35:25.380Z,58.73
2023-05-21T12:36:35.140Z,57.30
2023-05-21T12:37:41.096Z,57.61
2023-05-21T12:38:48.033Z,58.13
2023-05-21T12:39:54.758Z,57.85
2023-05-21T12:40:59.704Z,59.32
2023-05-21T12:42:06.224Z,58.00
2023-05-21T12:43:10.913Z,59.17
2023-05-21T12:44:16.805Z,59.17
2023-05-21T12:45:23.461Z,59.02
2023-05-21T12:46:29.448Z,57.92
2023-05-21T12:47:37.259Z,60.83
2023-05-21T12:48:42.365Z,58.36
2023-05-21T12:49:50.311Z,58.24
2023-05-21T12:50:56.364Z,59.13
2023-05-21T12:52:00.940Z,59.04
2023-05-21T12:53:06.901Z,59.13
2023-05-21T12:54:14.713Z,60.98
2023-05-21T12:55:21.009Z,59.91
2023-05-21T12:56:27.050Z,59.33
2023-05-21T12:57:39.694Z,61.92
2023-05-21T12:58:46.074Z,59.68
2023-05-21T12:59:53.245Z,59.39
2023-05-21T13:00:57.902Z,61.81
2023-05-21T13:02:04.480Z,59.39
2023-05-21T13:03:10.718Z,59.52
2023-05-21T13:04:16.657Z,59.60
2023-05-21T13:05:21.631Z,60.24
2023-05-21T13:06:27.515Z,59.10
2023-05-21T13:07:33.328Z,58.73
2023-05-21T13:08:39.242Z,58.60
2023-05-21T13:09:43.813Z,58.43
2023-05-21T13:10:49.696Z,58.44
2023-05-21T13:11:54.257Z,58.32
2023-05-21T13:13:00.245Z,58.59
2023-05-21T13:14:04.912Z,58.25
2023-05-21T13:15:11.447Z,58.24
2023-05-21T13:16:16.127Z,58.05
2023-05-21T13:17:22.163Z,57.96
2023-05-21T13:18:28.765Z,58.58
2023-05-21T13:19:34.783Z,58.32
2023-05-21T13:20:39.807Z,58.84
2023-05-21T13:21:45.775Z,58.71
2023-05-21T13:22:52.202Z,58.64
2023-05-21T13:23:56.912Z,59.49
2023-05-21T13:25:02.796Z,59.85
2023-05-21T13:26:07.448Z,60.13
2023-05-21T13:27:13.294Z,60.21
2023-05-21T13:28:18.039Z,60.05
2023-05-21T13:29:23.894Z,59.51
2023-05-21T13:30:28.462Z,59.85
2023-05-21T13:31:34.354Z,59.90
2023-05-21T13:32:39.486Z,59.49
2023-05-21T13:33:47.132Z,59.92
2023-05-21T13:34:51.702Z,59.47
2023-05-21T13:35:57.559Z,60.22
2023-05-21T13:37:03.499Z,59.81
2023-05-21T13:38:08.037Z,60.20
2023-05-21T13:39:13.920Z,60.14
2023-05-21T13:40:18.795Z,60.30
2023-05-21T13:41:24.635Z,60.14
2023-05-21T13:42:29.177Z,60.33
2023-05-21T13:43:35.046Z,60.26
2023-05-21T13:44:41.918Z,59.99
2023-05-21T13:45:49.625Z,59.79
2023-05-21T13:46:54.431Z,59.47
2023-05-21T13:48:00.437Z,59.97
2023-05-21T13:49:09.533Z,60.24
2023-05-21T13:50:14.566Z,59.28
2023-05-21T13:51:37.512Z,59.86
2023-05-21T13:52:44.826Z,59.77
2023-05-21T13:53:49.365Z,60.01
2023-05-21T13:54:55.472Z,60.85
2023-05-21T13:56:01.509Z,60.26
2023-05-21T13:57:06.750Z,61.00
2023-05-21T13:58:12.598Z,60.97
2023-05-21T13:59:18.298Z,60.66
2023-05-21T14:00:24.219Z,60.81
2023-05-21T14:01:28.942Z,60.72
2023-05-21T14:02:35.534Z,60.95
2023-05-21T14:03:41.497Z,60.79
2023-05-21T14:04:49.580Z,60.92
2023-05-21T14:05:55.355Z,60.54
2023-05-21T14:07:00.044Z,61.15
2023-05-21T14:08:06.019Z,61.02
2023-05-21T14:09:10.641Z,61.31
2023-05-21T14:10:16.778Z,61.47
2023-05-21T14:11:21.335Z,61.20
2023-05-21T14:12:27.678Z,60.78
2023-05-21T14:13:32.217Z,60.83
2023-05-21T14:14:38.972Z,61.04
2023-05-21T14:15:44.152Z,60.57
2023-05-21T14:16:50.195Z,60.77
2023-05-21T14:17:56.083Z,60.78
2023-05-21T14:19:00.869Z,60.62
2023-05-21T14:20:12.076Z,60.91
2023-05-21T14:21:17.966Z,60.77
2023-05-21T14:22:22.751Z,60.96
2023-05-21T14:23:28.707Z,61.21
2023-05-21T14:24:34.578Z,61.22
2023-05-21T14:25:40.886Z,60.53